Terminal Aerodrome Forecast
Issued by NWS

Home | Current Version | Previous Version | Graphics & Text | Print | Product List | Glossary On
Versions: 1 2 3 4 5 6 7 8 9 10 11 12 13 14 15 16 17 18 19 20 21 22 23 24
000
FTUS43 KPAH 171507 AAA
TAFCGI
TAF AMD
KCGI 171507Z 1715/1812 11004KT 6SM BR FEW009 OVC020
     FM171800 13005KT P6SM BKN035
     FM180300 00000KT 6SM BR FEW035 SCT250
     FM180600 00000KT 2SM BR FEW005 BKN250=

USA.gov is the U.S. government's official web portal to all federal, state and local government web resources and services.